Time;durP1;ratioP1;P1;durP2;ratioP2;P2;SDS_P1;SDS_P2;PMS_P1;PMS_P2;Temp;Humidity;BMP_temperature;BMP_pressure;BME280_temperature;BME280_humidity;BME280_pressure;Samples;Min_cycle;Max_cycle;Signal;HPM_P1;HPM_P2
2023/10/08 00:02:05;;;;;;;6.53;1.73;;;20.80;99.90;;;20.77;57.11;101887.19;4948159;28;97024;-70
2023/10/08 00:04:40;;;;;;;3.83;1.37;;;20.70;99.90;;;20.76;57.53;101896.19;4957961;28;97085;-70
2023/10/08 00:07:08;;;;;;;5.63;1.93;;;20.70;99.90;;;20.73;57.17;101886.50;4958861;28;97912;-70
2023/10/08 00:09:37;;;;;;;4.97;2.27;;;20.70;99.90;;;20.73;57.38;101901.75;4957218;28;97511;-70
2023/10/08 00:12:04;;;;;;;2.80;1.57;;;20.70;99.90;;;20.73;57.37;101896.38;4957562;28;96972;-71
2023/10/08 00:14:32;;;;;;;5.67;2.10;;;20.70;99.90;;;20.74;57.13;101898.09;4962033;28;97861;-70
2023/10/08 00:17:00;;;;;;;4.20;1.77;;;20.70;99.90;;;20.76;57.39;101896.19;4938258;28;100275;-71
2023/10/08 00:19:25;;;;;;;3.03;1.67;;;20.70;99.90;;;20.74;57.82;101893.59;4937580;28;97517;-70
2023/10/08 00:21:53;;;;;;;3.27;1.90;;;20.70;99.90;;;20.76;57.54;101896.19;4949243;28;97566;-70
2023/10/08 00:24:26;;;;;;;2.03;1.40;;;20.70;99.90;;;20.74;57.70;101890.91;4930824;28;99972;-71
2023/10/08 00:26:54;;;;;;;6.30;1.70;;;20.70;99.90;;;20.76;57.55;101904.22;4939931;28;97076;-70
2023/10/08 00:29:22;;;;;;;2.43;1.80;;;20.80;99.90;;;20.76;57.65;101896.19;4942494;28;96926;-71
2023/10/08 00:31:49;;;;;;;2.97;1.60;;;20.70;99.90;;;20.75;57.46;101898.00;4945335;28;97604;-72
2023/10/08 00:34:19;;;;;;;5.87;1.87;;;20.70;99.90;;;20.76;57.85;101904.22;4958718;28;100966;-70
2023/10/08 00:36:47;;;;;;;5.83;1.87;;;20.70;99.90;;;20.77;57.38;101914.00;4955115;28;103102;-70
2023/10/08 00:39:14;;;;;;;5.23;2.00;;;20.70;99.90;;;20.76;57.21;101912.28;4954281;28;97657;-70
2023/10/08 00:41:45;;;;;;;3.63;1.63;;;20.70;99.90;;;20.73;57.25;101915.16;4959826;28;97665;-70
2023/10/08 00:44:15;;;;;;;6.30;2.00;;;20.70;99.90;;;20.72;57.06;101919.66;4948132;28;97388;-70
2023/10/08 00:46:47;;;;;;;4.43;1.93;;;20.70;99.90;;;20.70;57.67;101907.28;4942209;28;97322;-71
2023/10/08 00:51:59;;;;;;;4.23;1.83;;;20.70;99.90;;;20.67;57.53;101892.22;4934682;28;97108;-70
2023/10/08 00:54:28;;;;;;;2.33;1.50;;;20.70;99.90;;;20.68;56.60;101893.94;4949218;28;100788;-70
2023/10/08 00:56:57;;;;;;;3.90;1.73;;;20.70;99.90;;;20.69;57.30;101889.47;4930047;28;99039;-70
2023/10/08 00:59:37;;;;;;;3.50;1.70;;;20.70;99.90;;;20.69;56.38;101894.84;4939418;28;97677;-70
2023/10/08 01:02:14;;;;;;;3.40;2.03;;;20.70;99.90;;;20.66;57.61;101897.69;4941382;28;99406;-70
2023/10/08 01:04:43;;;;;;;3.33;1.87;;;20.60;99.90;;;20.68;57.40;101893.09;4953348;28;98213;-70
2023/10/08 01:07:13;;;;;;;2.30;1.43;;;20.60;99.90;;;20.67;57.33;101902.09;4961983;28;97349;-69
2023/10/08 01:09:42;;;;;;;2.47;1.77;;;20.60;99.90;;;20.68;57.14;101919.88;4930595;28;97220;-70
2023/10/08 01:14:48;;;;;;;3.23;1.50;;;20.60;99.90;;;20.66;56.68;101895.00;4937573;28;100682;-70
2023/10/08 01:17:16;;;;;;;4.20;1.97;;;20.60;99.90;;;20.64;57.19;101896.91;4960830;28;99963;-70
2023/10/08 01:19:56;;;;;;;4.50;1.53;;;20.60;99.90;;;20.66;57.90;101895.00;4941576;28;97144;-70
2023/10/08 01:22:24;;;;;;;3.17;1.70;;;20.60;99.90;;;20.64;57.31;101880.81;4938446;28;97191;-70
2023/10/08 01:24:51;;;;;;;3.07;1.60;;;20.60;99.90;;;20.65;57.86;101877.19;4939606;28;97142;-71
2023/10/08 01:27:21;;;;;;;5.47;1.73;;;20.60;99.90;;;20.64;57.88;101881.69;4943991;28;96692;-70
2023/10/08 01:29:50;;;;;;;5.60;1.57;;;20.60;99.90;;;20.64;57.94;101888.88;4954228;28;97229;-70
2023/10/08 01:32:17;;;;;;;2.47;1.80;;;20.60;99.90;;;20.64;57.78;101888.88;4955362;28;97620;-70
2023/10/08 01:34:46;;;;;;;2.10;1.13;;;20.60;99.90;;;20.63;56.96;101879.97;4939641;28;104573;-70
2023/10/08 01:37:17;;;;;;;4.20;1.50;;;20.60;99.90;;;20.63;57.94;101873.72;4946021;28;96922;-71
2023/10/08 01:39:45;;;;;;;1.90;1.40;;;20.60;99.90;;;20.65;58.11;101891.44;4949700;28;97304;-71
2023/10/08 01:42:21;;;;;;;3.17;1.80;;;20.60;99.90;;;20.66;57.83;101911.06;4966150;28;97714;-70
2023/10/08 01:44:50;;;;;;;2.73;1.60;;;20.60;99.90;;;20.64;58.16;101913.84;4962860;28;100578;-70
2023/10/08 01:47:17;;;;;;;3.67;1.77;;;20.60;99.90;;;20.66;57.78;101906.56;4944518;28;102948;-70
2023/10/08 01:49:46;;;;;;;6.47;1.70;;;20.60;99.90;;;20.66;57.96;101906.56;4967720;28;99169;-70
2023/10/08 01:52:22;;;;;;;2.57;1.30;;;20.60;99.90;;;20.66;58.01;101905.72;4938680;28;97185;-70
2023/10/08 01:54:49;;;;;;;2.07;1.20;;;20.60;99.90;;;20.66;58.15;101916.44;4955379;28;100797;-73
2023/10/08 01:57:16;;;;;;;3.70;0.90;;;20.60;99.90;;;20.67;58.20;101912.81;4950332;28;101134;-70
2023/10/08 01:59:44;;;;;;;2.80;1.40;;;20.60;99.90;;;20.67;58.02;101918.16;4947186;28;97733;-70
2023/10/08 02:06:17;;;;;;;3.77;2.00;;;20.60;99.90;;;20.63;57.75;101906.75;4952665;28;100154;-71
2023/10/08 02:08:43;;;;;;;2.63;1.73;;;20.60;99.90;;;20.61;58.39;101895.28;4956833;28;104360;-71
2023/10/08 02:11:10;;;;;;;2.63;1.60;;;20.60;99.90;;;20.62;58.24;101893.44;4935491;28;97304;-70
2023/10/08 02:13:36;;;;;;;1.77;1.10;;;20.60;99.90;;;20.60;58.46;101895.38;4950737;28;97532;-70
2023/10/08 02:16:03;;;;;;;1.70;1.00;;;20.60;99.90;;;20.59;58.46;101901.69;4961887;28;97466;-71
2023/10/08 02:18:30;;;;;;;1.23;1.00;;;20.50;99.90;;;20.60;58.33;101906.94;4952227;28;97387;-70
2023/10/08 02:20:56;;;;;;;2.37;1.27;;;20.60;99.90;;;20.60;58.25;101906.94;4950689;28;97290;-70
2023/10/08 02:23:22;;;;;;;2.43;1.23;;;20.60;99.90;;;20.61;57.95;101907.81;4960212;28;100048;-71
2023/10/08 02:25:47;;;;;;;1.80;1.10;;;20.60;99.90;;;20.63;58.34;101919.31;4965223;28;98778;-70
2023/10/08 02:28:15;;;;;;;2.57;1.47;;;20.60;99.90;;;20.62;58.35;101925.63;4968468;28;98822;-71
2023/10/08 02:30:42;;;;;;;2.23;1.27;;;20.60;99.90;;;20.60;58.52;101916.81;4958659;28;97194;-71
2023/10/08 02:33:13;;;;;;;2.47;1.33;;;20.50;99.90;;;20.59;58.44;101909.72;4952737;28;96997;-71
2023/10/08 02:35:44;;;;;;;1.50;1.07;;;20.60;99.90;;;20.61;58.31;101907.81;4954600;28;98787;-70
2023/10/08 02:38:13;;;;;;;2.33;1.20;;;20.50;99.90;;;20.59;58.41;101910.59;4943645;28;97621;-71
2023/10/08 02:40:46;;;;;;;1.90;1.17;;;20.50;99.90;;;20.59;58.24;101907.03;4965141;28;97887;-71
2023/10/08 02:43:14;;;;;;;2.50;1.50;;;20.50;99.90;;;20.58;58.42;101919.59;4954660;28;97082;-71
2023/10/08 02:45:41;;;;;;;1.40;1.10;;;20.50;99.90;;;20.58;58.49;101927.63;4955007;28;97574;-71
2023/10/08 02:48:11;;;;;;;2.70;1.43;;;20.50;99.90;;;20.58;58.33;101913.34;4946976;28;97589;-71
2023/10/08 02:50:41;;;;;;;2.10;1.30;;;20.50;99.90;;;20.57;58.58;101912.50;4948991;28;96948;-71
2023/10/08 02:53:11;;;;;;;2.23;1.17;;;20.50;99.90;;;20.56;58.49;101900.06;4912504;28;97507;-71
2023/10/08 02:55:44;;;;;;;2.47;1.20;;;20.50;99.90;;;20.57;58.50;101908.94;4955055;28;98997;-71
2023/10/08 02:58:18;;;;;;;1.83;1.30;;;20.50;99.90;;;20.57;58.58;101900.91;4942999;28;97232;-71
2023/10/08 03:00:48;;;;;;;2.33;1.33;;;20.50;99.90;;;20.56;58.54;101893.81;4960721;28;97143;-71
2023/10/08 03:03:16;;;;;;;2.47;1.00;;;20.50;99.90;;;20.55;58.57;101913.53;4966269;28;98259;-71
2023/10/08 03:05:47;;;;;;;3.37;1.33;;;20.50;99.90;;;20.57;57.95;101917.00;4956931;28;100525;-71
2023/10/08 03:08:21;;;;;;;2.50;1.40;;;20.50;99.90;;;20.54;58.46;101912.66;4958454;28;97813;-71
2023/10/08 03:10:55;;;;;;;2.17;1.50;;;20.50;99.90;;;20.53;58.78;101910.06;4956574;28;97084;-71
2023/10/08 03:13:21;;;;;;;3.27;1.50;;;20.40;99.90;;;20.52;58.73;101919.06;4948274;28;97551;-71
2023/10/08 03:18:35;;;;;;;2.83;1.50;;;20.40;99.90;;;20.45;58.53;101927.47;4951963;28;101136;-71
2023/10/08 03:21:05;;;;;;;3.77;1.87;;;20.30;99.90;;;20.41;59.04;101938.41;4950643;28;96974;-71
2023/10/08 03:23:35;;;;;;;2.00;1.33;;;20.20;99.90;;;20.38;59.23;101939.44;4950907;28;96998;-71
2023/10/08 03:28:57;;;;;;;2.53;1.43;;;20.20;99.90;;;20.38;59.02;101943.91;4945852;28;100790;-71
2023/10/08 03:31:44;;;;;;;3.30;1.53;;;20.20;99.90;;;20.36;59.15;101935.97;4929996;28;99945;-72
2023/10/08 03:34:14;;;;;;;2.13;1.40;;;20.20;99.90;;;20.35;59.38;101934.25;4964979;28;97073;-71
2023/10/08 03:36:44;;;;;;;2.37;1.50;;;20.20;99.90;;;20.37;59.03;101937.69;4959757;28;97675;-71
2023/10/08 03:39:14;;;;;;;3.00;1.63;;;20.20;99.90;;;20.38;59.18;101934.06;4962075;28;97987;-71
2023/10/08 03:41:51;;;;;;;2.53;1.50;;;20.30;99.90;;;20.39;59.26;101941.16;4941055;28;97282;-71
2023/10/08 03:44:20;;;;;;;1.37;1.10;;;20.30;99.90;;;20.40;59.14;101920.63;4947609;28;96824;-71
2023/10/08 03:46:48;;;;;;;1.93;1.23;;;20.30;99.90;;;20.39;58.99;101914.34;4942279;22;103134;-45
2023/10/08 03:51:46;;;;;;;1.67;1.20;;;20.30;99.90;;;20.38;59.17;101943.91;4965315;28;97426;-42
2023/10/08 03:56:45;;;;;;;2.27;1.30;;;20.20;99.90;;;20.38;59.31;101965.34;4954853;28;97339;-43
2023/10/08 03:59:31;;;;;;;2.87;1.30;;;20.20;99.90;;;20.37;59.08;101953.78;4947554;28;97201;-42
2023/10/08 04:02:14;;;;;;;1.97;1.20;;;20.20;99.90;;;20.36;59.27;101945.81;4943403;28;97144;-42
2023/10/08 04:04:56;;;;;;;2.30;1.33;;;20.20;99.90;;;20.36;59.49;101925.25;4921490;28;96981;-44
2023/10/08 04:07:26;;;;;;;1.60;1.20;;;20.20;99.90;;;20.37;59.26;101921.63;4938248;28;100408;-42
2023/10/08 04:12:44;;;;;;;3.37;1.40;;;20.30;99.90;;;20.39;59.01;101941.16;4911411;28;96776;-42
2023/10/08 04:15:16;;;;;;;2.17;1.10;;;20.30;99.90;;;20.39;59.21;101930.44;4944041;28;97603;-45
2023/10/08 04:17:45;;;;;;;1.10;1.00;;;20.30;99.90;;;20.39;58.51;101942.97;4931565;28;98189;-42
2023/10/08 04:21:16;;;;;;;2.00;0.83;;;20.30;99.90;;;20.39;59.40;101916.16;4937050;28;99036;-42
2023/10/08 04:23:20;;;;;;;1.80;0.97;;;20.30;99.90;;;20.38;59.29;101928.72;4914756;28;97601;-42
2023/10/08 04:25:53;;;;;;;4.10;1.83;;;20.30;99.90;;;20.37;57.32;101942.19;4933289;28;97141;-45
2023/10/08 04:28:20;;;;;;;1.73;1.20;;;20.30;99.90;;;20.35;59.35;101947.66;4932166;28;102886;-45
2023/10/08 04:30:50;;;;;;;4.57;2.00;;;20.20;99.90;;;20.33;58.58;101925.44;4947585;28;101807;-45
2023/10/08 04:33:23;;;;;;;2.83;1.40;;;20.20;99.90;;;20.31;59.49;101921.13;4939669;28;97416;-45
2023/10/08 04:35:51;;;;;;;1.80;1.30;;;20.10;99.90;;;20.30;59.54;101924.75;4942503;28;101017;-55
2023/10/08 04:38:21;;;;;;;2.13;1.43;;;20.20;99.90;;;20.30;58.57;101925.63;4945571;28;100167;-45
2023/10/08 04:40:53;;;;;;;2.87;1.20;;;20.20;99.90;;;20.30;59.57;101920.25;4938178;28;102174;-44
2023/10/08 04:43:27;;;;;;;1.53;1.23;;;20.10;99.90;;;20.31;58.81;101943.41;4929972;28;96772;-44
2023/10/08 04:45:54;;;;;;;2.60;1.40;;;20.10;99.90;;;20.29;59.38;101961.41;4932733;28;100816;-46
2023/10/08 04:48:20;;;;;;;2.77;1.70;;;20.10;99.90;;;20.30;59.64;101959.59;4939755;28;97453;-46
2023/10/08 04:50:58;;;;;;;1.80;1.33;;;20.10;99.90;;;20.31;59.61;101972.88;4940893;28;97296;-44
2023/10/08 04:53:31;;;;;;;2.00;1.00;;;20.20;99.90;;;20.32;59.68;101979.97;4947988;28;97051;-43
2023/10/08 04:56:16;;;;;;;1.60;1.20;;;20.20;99.90;;;20.34;59.52;101975.41;4945551;28;97327;-42
2023/10/08 04:58:47;;;;;;;3.53;1.80;;;20.20;99.90;;;20.34;58.03;101964.69;4932016;28;98563;-44
2023/10/08 05:01:20;;;;;;;1.40;0.83;;;20.20;99.90;;;20.32;59.18;101966.59;4941133;28;97564;-49
2023/10/08 05:04:23;;;;;;;2.77;1.27;;;20.20;99.90;;;20.33;59.50;101968.31;4946913;28;96970;-44
2023/10/08 05:06:50;;;;;;;2.63;1.63;;;20.20;99.90;;;20.33;59.65;101962.94;4940332;28;97389;-43
2023/10/08 05:12:08;;;;;;;1.70;1.00;;;20.30;99.90;;;20.35;59.36;101961.03;4940913;28;101318;-43
2023/10/08 05:17:21;;;;;;;1.97;1.30;;;20.30;99.90;;;20.33;59.37;101957.59;4935269;28;96885;-43
2023/10/08 05:20:19;;;;;;;4.13;1.70;;;20.20;99.90;;;20.30;58.80;101941.69;4949355;28;101781;-43
2023/10/08 05:22:55;;;;;;;1.80;1.20;;;20.20;99.90;;;20.28;59.57;101962.34;4948864;28;103673;-45
2023/10/08 05:30:24;;;;;;;1.97;1.20;;;19.90;99.90;;;20.13;60.05;101981.94;4943756;28;97121;-43
2023/10/08 05:33:06;;;;;;;2.20;1.27;;;19.80;99.90;;;20.14;60.23;101992.59;4937179;28;101017;-46
2023/10/08 05:49:26;;;;;;;3.97;1.93;;;19.90;99.90;;;20.07;58.75;102014.41;4932771;28;98650;-48
2023/10/08 05:57:14;;;;;;;2.30;1.43;;;19.80;99.90;;;20.04;60.13;102030.66;4933170;28;97091;-47
2023/10/08 06:02:48;;;;;;;3.53;1.93;;;19.80;99.90;;;20.02;59.64;102027.19;4920329;28;101004;-47
2023/10/08 06:13:13;;;;;;;3.23;1.93;;;19.60;99.90;;;19.95;60.52;102015.06;4925853;28;97005;-45
2023/10/08 06:18:30;;;;;;;2.17;1.57;;;19.50;99.90;;;19.79;61.10;101998.94;4940872;28;97358;-44
2023/10/08 06:21:09;;;;;;;3.70;2.27;;;19.40;99.90;;;19.80;61.03;101985.47;4948097;28;97835;-44
2023/10/08 06:23:39;;;;;;;2.80;1.40;;;19.40;99.90;;;19.79;61.46;101994.47;4941510;28;97909;-43
2023/10/08 06:26:14;;;;;;;4.33;2.70;;;19.50;99.90;;;19.82;60.85;101997.00;4931459;28;99938;-46
2023/10/08 06:28:44;;;;;;;1.83;1.17;;;19.60;99.90;;;19.82;61.18;101988.97;4942369;28;99847;-48
2023/10/08 06:31:16;;;;;;;1.63;1.00;;;19.50;99.90;;;19.84;61.12;101997.78;4938307;28;97487;-46
2023/10/08 06:33:44;;;;;;;4.87;2.17;;;19.50;99.90;;;19.86;61.00;101993.22;4928541;28;97589;-49
2023/10/08 06:38:38;;;;;;;5.00;1.60;;;19.60;99.90;;;19.89;60.98;102011.78;4937079;28;97066;-44
2023/10/08 06:41:08;;;;;;;1.90;1.30;;;19.60;99.90;;;19.94;61.12;102018.69;4944552;28;97024;-43
2023/10/08 06:43:36;;;;;;;5.80;1.70;;;19.70;99.90;;;19.97;60.34;102023.91;4942666;28;98801;-44
2023/10/08 06:46:03;;;;;;;3.00;1.17;;;19.80;99.90;;;19.99;60.80;102006.81;4930925;28;103295;-44
2023/10/08 06:48:29;;;;;;;2.67;1.27;;;19.80;99.90;;;20.02;60.90;102027.19;4936409;28;97393;-43
2023/10/08 06:51:07;;;;;;;4.63;1.57;;;19.80;99.90;;;20.06;60.62;102058.22;4941265;28;100492;-46
2023/10/08 06:53:33;;;;;;;4.67;2.37;;;19.90;99.90;;;20.08;59.51;102048.28;4944241;28;96975;-43
2023/10/08 06:56:04;;;;;;;4.20;1.80;;;19.90;99.90;;;20.11;59.71;102038.28;4945282;28;96734;-47
2023/10/08 06:58:34;;;;;;;4.43;2.20;;;19.90;99.90;;;20.12;60.08;102039.16;4942219;28;99199;-43
2023/10/08 07:01:08;;;;;;;4.87;1.70;;;20.00;99.90;;;20.13;59.77;102025.69;4930760;28;97140;-44
2023/10/08 07:06:31;;;;;;;2.33;1.30;;;20.00;99.90;;;20.13;60.48;102024.81;5190819;22;98060;-53
2023/10/08 07:08:59;;;;;;;3.67;1.70;;;19.90;99.90;;;20.15;60.42;102030.94;4925258;28;96799;-49
2023/10/08 07:11:26;;;;;;;1.87;1.33;;;19.90;99.90;;;20.15;60.65;102029.13;4937976;28;97841;-49
2023/10/08 07:13:53;;;;;;;1.63;1.10;;;20.00;99.90;;;20.15;60.29;102037.16;4936979;28;98913;-57
2023/10/08 07:16:20;;;;;;;3.93;2.13;;;20.00;99.90;;;20.16;60.55;102024.66;4941545;28;97289;-49
2023/10/08 07:18:54;;;;;;;2.23;1.20;;;20.00;99.90;;;20.16;60.59;102027.31;4927468;28;97723;-50
2023/10/08 07:21:28;;;;;;;1.63;1.20;;;20.00;99.90;;;20.17;60.54;102029.06;4947098;28;98534;-49
2023/10/08 07:23:56;;;;;;;1.70;0.90;;;20.00;99.90;;;20.19;60.56;102035.19;4940065;28;101955;-51
2023/10/08 07:26:26;;;;;;;2.93;1.40;;;20.00;99.90;;;20.21;60.33;102028.78;4924335;28;96860;-48
2023/10/08 07:28:53;;;;;;;4.73;2.50;;;20.00;99.90;;;20.19;60.61;102035.19;4932974;28;97453;-48
2023/10/08 07:31:24;;;;;;;1.90;1.23;;;20.00;99.90;;;20.21;60.37;102044.00;4938354;28;98508;-52
2023/10/08 07:33:58;;;;;;;2.13;1.20;;;20.00;99.90;;;20.24;60.16;102053.69;4925495;28;101607;-53
2023/10/08 07:36:29;;;;;;;4.37;1.93;;;20.10;99.90;;;20.25;60.14;102064.31;4942207;28;101741;-48
2023/10/08 07:38:55;;;;;;;2.97;1.63;;;20.10;99.90;;;20.25;60.10;102050.91;4945058;28;96991;-47
2023/10/08 07:41:21;;;;;;;3.20;1.80;;;20.10;99.90;;;20.25;59.82;102045.56;4944101;28;97090;-50
2023/10/08 07:43:55;;;;;;;1.33;0.83;;;20.10;99.90;;;20.28;59.99;102058.81;4926613;28;98898;-53
2023/10/08 07:46:22;;;;;;;1.90;1.20;;;20.10;99.90;;;20.29;59.37;102065.91;4933232;28;99937;-48
2023/10/08 07:48:50;;;;;;;7.10;2.37;;;20.20;99.90;;;20.31;59.19;102080.06;4933211;28;97057;-46
2023/10/08 07:51:23;;;;;;;3.10;1.10;;;20.20;99.90;;;20.29;59.29;102081.97;4941755;28;97340;-48
2023/10/08 07:53:55;;;;;;;1.70;1.03;;;20.10;99.90;;;20.30;59.65;102091.75;4928224;28;101334;-49
2023/10/08 07:56:23;;;;;;;1.43;1.00;;;20.10;99.90;;;20.31;59.54;102087.25;4942328;28;101144;-47
2023/10/08 07:58:50;;;;;;;1.70;1.00;;;20.10;99.90;;;20.32;59.89;102084.47;4941885;28;97616;-47
2023/10/08 08:01:16;;;;;;;4.90;2.50;;;20.20;99.90;;;20.31;58.46;102081.88;4943203;28;98486;-47
2023/10/08 08:03:44;;;;;;;2.60;1.30;;;20.20;99.90;;;20.31;59.27;102088.13;4930825;28;98772;-48
2023/10/08 08:06:10;;;;;;;2.70;1.43;;;20.10;99.90;;;20.33;59.71;102106.78;4926403;28;98788;-49
2023/10/08 08:08:38;;;;;;;3.13;1.67;;;20.20;99.90;;;20.35;59.44;102089.66;4938488;28;97803;-50
2023/10/08 08:11:12;;;;;;;1.43;0.90;;;20.20;99.90;;;20.37;59.58;102087.78;4920559;22;97939;-75
2023/10/08 08:13:43;;;;;;;1.63;1.03;;;20.30;99.90;;;20.39;59.52;102085.88;4860597;28;99172;-74
2023/10/08 08:16:19;;;;;;;2.73;1.57;;;20.30;99.90;;;20.43;59.48;102087.50;4891115;28;97330;-75
2023/10/08 08:18:52;;;;;;;3.30;1.60;;;20.40;99.90;;;20.45;59.04;102084.72;4898449;28;98097;-75
2023/10/08 08:21:19;;;;;;;3.37;1.47;;;20.40;99.90;;;20.45;58.86;102090.94;4856446;28;100097;-74
2023/10/08 08:23:48;;;;;;;3.13;1.70;;;20.40;99.90;;;20.44;56.91;102099.06;4872699;28;97637;-74
2023/10/08 08:26:32;;;;;;;5.27;2.07;;;20.30;99.90;;;20.40;57.63;102084.94;4869812;28;98194;-74
2023/10/08 08:29:01;;;;;;;2.80;1.57;;;20.30;99.90;;;20.39;58.63;102096.59;4880513;28;98760;-75
2023/10/08 08:31:31;;;;;;;1.43;0.90;;;20.30;99.90;;;20.38;59.58;102088.63;4869343;28;97770;-74
2023/10/08 08:34:02;;;;;;;3.13;1.40;;;20.20;99.90;;;20.36;58.49;102096.75;4895609;28;97220;-75
2023/10/08 08:36:33;;;;;;;6.33;2.40;;;20.20;99.90;;;20.33;57.52;102096.94;4882531;28;99279;-75
2023/10/08 08:39:00;;;;;;;4.50;2.10;;;20.20;99.90;;;20.32;56.64;102099.69;4862699;28;97045;-75
2023/10/08 08:41:25;;;;;;;5.70;2.00;;;20.20;99.90;;;20.27;56.79;102107.13;4994974;22;98544;-72
2023/10/08 08:43:58;;;;;;;4.17;1.97;;;20.10;99.90;;;20.23;58.64;102106.41;4915784;28;99394;-73
2023/10/08 08:46:35;;;;;;;3.50;2.10;;;20.00;99.90;;;20.24;58.40;102108.13;4908273;28;103468;-73
2023/10/08 08:49:11;;;;;;;5.80;2.20;;;20.10;99.90;;;20.23;58.24;102105.53;4928489;28;98011;-73
2023/10/08 08:51:38;;;;;;;5.77;2.00;;;20.00;99.90;;;20.23;59.48;102117.13;4931295;28;97011;-72
2023/10/08 08:54:08;;;;;;;4.47;2.20;;;20.10;99.90;;;20.18;57.74;102120.06;4904860;28;97352;-72
2023/10/08 08:56:38;;;;;;;5.63;2.20;;;20.00;99.90;;;20.19;59.60;102116.41;4929824;28;97666;-73
2023/10/08 08:59:11;;;;;;;4.40;2.27;;;20.00;99.90;;;20.20;58.32;102111.94;4919845;28;99430;-72
2023/10/08 09:01:40;;;;;;;3.83;1.60;;;20.00;99.90;;;20.21;59.92;102108.28;4925249;28;97300;-72
2023/10/08 09:04:06;;;;;;;6.70;1.60;;;20.10;99.90;;;20.23;59.83;102109.06;4917643;28;97395;-72
2023/10/08 09:06:37;;;;;;;5.73;2.37;;;20.10;99.90;;;20.26;58.63;102106.25;4926788;28;97394;-73
2023/10/08 09:09:22;;;;;;;3.93;1.63;;;20.10;99.90;;;20.27;59.58;102108.00;4928640;28;98972;-73
2023/10/08 09:11:52;;;;;;;4.70;2.50;;;20.10;99.90;;;20.26;58.77;102100.03;4925757;28;96868;-72
2023/10/08 09:14:25;;;;;;;2.90;1.70;;;20.10;99.90;;;20.27;59.49;102097.28;4931478;28;105195;-73
2023/10/08 09:16:54;;;;;;;6.57;2.77;;;20.10;99.90;;;20.29;58.86;102103.41;5002702;22;103265;-73
2023/10/08 09:19:23;;;;;;;5.37;2.40;;;20.20;99.90;;;20.31;58.79;102109.56;4971503;28;97266;-74
2023/10/08 09:22:11;;;;;;;6.53;2.90;;;20.20;99.90;;;20.31;57.76;102106.88;4953002;28;96943;-74
2023/10/08 09:27:14;;;;;;;6.43;2.77;;;20.20;99.90;;;20.33;58.34;102120.19;4610898;26;98047;-71
2023/10/08 09:29:40;;;;;;;6.23;3.07;;;20.10;99.90;;;20.30;58.45;102123.91;4939021;28;97086;-70
2023/10/08 09:32:13;;;;;;;2.93;2.10;;;20.20;99.90;;;20.32;59.48;102142.56;4949260;28;97547;-71
2023/10/08 09:34:39;;;;;;;3.50;1.37;;;20.20;99.90;;;20.30;59.30;102141.78;4944878;28;97729;-71
2023/10/08 09:37:07;;;;;;;7.63;2.63;;;20.20;99.90;;;20.23;58.22;102127.84;4938878;28;97224;-71
2023/10/08 09:39:34;;;;;;;8.97;2.93;;;20.10;99.90;;;20.26;59.30;102133.06;4931556;28;97960;-70
2023/10/08 09:42:02;;;;;;;8.20;2.90;;;20.10;99.90;;;20.26;57.76;102133.06;4942083;28;96767;-71
2023/10/08 09:44:30;;;;;;;5.43;2.57;;;20.10;99.90;;;20.21;58.38;102129.72;5025394;22;98163;-74
2023/10/08 09:47:10;;;;;;;7.33;2.57;;;20.10;99.90;;;20.20;59.05;102141.41;4915585;28;99535;-74
2023/10/08 09:49:43;;;;;;;5.73;2.40;;;20.00;99.90;;;20.24;59.38;102148.31;4915197;28;97759;-74
2023/10/08 09:52:10;;;;;;;2.50;1.33;;;20.10;99.90;;;20.27;59.81;102156.22;4927285;28;97105;-74
2023/10/08 09:54:59;;;;;;;6.43;3.07;;;20.20;99.90;;;20.32;59.20;102154.16;4913199;28;97836;-74
2023/10/08 09:57:26;;;;;;;3.43;1.50;;;20.20;99.90;;;20.30;59.59;102156.06;5034616;22;103072;-71
2023/10/08 09:59:53;;;;;;;2.00;1.30;;;20.20;99.90;;;20.35;59.24;102148.63;4931607;28;97658;-71
2023/10/08 10:02:26;;;;;;;5.73;2.90;;;20.30;99.90;;;20.39;58.00;102155.53;4917793;28;97370;-72
2023/10/08 10:04:54;;;;;;;4.87;3.00;;;20.40;99.90;;;20.40;57.64;102149.28;4912536;28;102956;-72
2023/10/08 10:07:21;;;;;;;8.00;3.03;;;20.30;99.90;;;20.42;58.88;102155.44;4911687;28;101186;-71
2023/10/08 10:09:53;;;;;;;4.53;2.90;;;20.30;99.90;;;20.38;57.45;102159.16;4908874;28;97508;-72
2023/10/08 10:12:27;;;;;;;12.77;3.33;;;20.30;99.90;;;20.39;58.13;102160.03;4921351;28;97767;-71
2023/10/08 10:14:55;;;;;;;2.90;1.47;;;20.30;99.90;;;20.39;59.47;102149.31;4903812;28;100570;-72
2023/10/08 10:17:25;;;;;;;9.83;2.90;;;20.30;99.90;;;20.39;57.49;102150.19;4910949;28;96612;-71
2023/10/08 10:19:55;;;;;;;11.60;3.47;;;20.30;99.90;;;20.36;57.78;102150.34;4918376;28;96892;-71
2023/10/08 10:22:33;;;;;;;10.50;3.40;;;20.20;99.90;;;20.33;57.75;102158.56;4908179;28;97570;-71
2023/10/08 10:25:14;;;;;;;9.50;3.10;;;20.20;99.90;;;20.34;58.22;102152.25;4907093;28;101615;-72
2023/10/08 10:27:55;;;;;;;8.80;3.93;;;20.20;99.90;;;20.29;58.24;102143.59;4912639;28;97524;-71
2023/10/08 10:30:23;;;;;;;7.43;3.70;;;20.10;99.90;;;20.30;59.04;102145.34;4911384;28;97336;-71
2023/10/08 10:32:52;;;;;;;10.37;2.83;;;20.10;99.90;;;20.33;58.61;102150.53;4907822;28;97278;-72
2023/10/08 10:35:19;;;;;;;8.53;3.10;;;20.20;99.90;;;20.34;57.95;102157.63;4910712;28;97568;-72
2023/10/08 10:37:52;;;;;;;6.60;3.40;;;20.20;99.90;;;20.27;58.24;102148.19;4911521;28;97209;-71
2023/10/08 10:41:23;;;;;;;7.43;3.33;;;20.10;99.90;;;20.29;59.34;102148.09;4919781;28;97437;-72
2023/10/08 10:43:20;;;;;;;12.43;3.33;;;20.10;99.90;;;20.32;58.39;102153.28;4894053;28;97567;-72
2023/10/08 10:45:47;;;;;;;7.53;3.27;;;20.20;99.90;;;20.31;58.64;102155.09;4908228;28;97776;-72
2023/10/08 10:53:57;;;;;;;9.50;3.60;;;20.20;99.90;;;20.26;59.11;102143.78;4913717;28;97121;-71
2023/10/08 10:56:29;;;;;;;9.27;4.03;;;20.10;99.90;;;20.27;58.39;102140.16;4926358;28;100473;-71
2023/10/08 10:59:15;;;;;;;7.77;3.40;;;20.10;99.90;;;20.32;58.58;102142.56;4910516;28;101628;-73
2023/10/08 11:01:46;;;;;;;6.97;3.80;;;20.20;99.90;;;20.35;59.02;102148.63;4910751;28;97490;-71
2023/10/08 11:04:15;;;;;;;4.70;2.90;;;20.20;99.90;;;20.38;59.33;102143.09;4899950;28;96896;-71
2023/10/08 11:06:47;;;;;;;8.67;3.23;;;20.30;99.90;;;20.40;58.90;102146.59;4912464;28;98124;-73
2023/10/08 11:09:22;;;;;;;8.33;3.30;;;20.30;99.90;;;20.42;59.45;102134.00;4899071;28;99680;-71
2023/10/08 11:11:54;;;;;;;6.03;3.60;;;20.30;99.90;;;20.44;59.31;102142.81;4914590;28;97124;-71
2023/10/08 11:14:21;;;;;;;9.80;3.60;;;20.40;99.90;;;20.47;58.95;102142.66;4926920;28;97221;-71
2023/10/08 11:16:48;;;;;;;10.17;3.90;;;20.40;99.90;;;20.49;59.19;102146.09;4907751;28;97144;-71
2023/10/08 11:19:15;;;;;;;3.23;1.73;;;20.50;99.90;;;20.52;58.97;102145.06;4912100;28;97163;-71
2023/10/08 11:21:53;;;;;;;8.23;3.40;;;20.50;99.90;;;20.56;59.17;102153.84;4900544;28;96940;-72
2023/10/08 11:24:33;;;;;;;7.67;3.20;;;20.50;99.90;;;20.58;59.27;102143.91;4909317;28;96819;-71
2023/10/08 11:27:15;;;;;;;8.60;4.00;;;20.50;99.90;;;20.59;59.30;102146.50;4909478;28;100512;-73
2023/10/08 11:29:47;;;;;;;6.63;3.47;;;20.50;99.90;;;20.61;58.91;102141.03;4911143;28;96942;-72
2023/10/08 11:32:19;;;;;;;11.63;4.27;;;20.60;99.90;;;20.65;58.83;102150.63;4902963;28;97622;-71
2023/10/08 11:34:50;;;;;;;4.73;1.90;;;20.60;99.90;;;20.64;58.62;102143.53;4910649;28;97166;-71
2023/10/08 11:37:33;;;;;;;7.57;4.03;;;20.60;99.90;;;20.65;59.27;102140.78;4908072;28;97104;-72
2023/10/08 11:40:08;;;;;;;7.50;3.53;;;20.70;99.90;;;20.66;59.57;102130.91;4911142;28;101331;-71
2023/10/08 11:45:17;;;;;;;10.83;3.43;;;20.70;99.90;;;20.69;58.51;102136.13;4930260;28;97351;-71
2023/10/08 11:47:49;;;;;;;3.73;2.07;;;20.70;99.90;;;20.69;58.48;102125.41;4908895;28;97048;-73
2023/10/08 11:50:19;;;;;;;7.53;3.27;;;20.70;99.90;;;20.72;58.87;102130.59;4911052;28;97434;-71